Time;durP1;ratioP1;P1;durP2;ratioP2;P2;SDS_P1;SDS_P2;PMS_P1;PMS_P2;Temp;Humidity;BMP_temperature;BMP_pressure;BME280_temperature;BME280_humidity;BME280_pressure;Samples;Min_cycle;Max_cycle;Signal;HPM_P1;HPM_P2
2023/05/22 00:00:55;;;;;;;34.08;18.83;;;;;;;;;;2052819;29;20058;-95
2023/05/22 00:02:16;;;;;;;32.88;18.48;;;;;;;;;;2059779;28;20061;-95
2023/05/22 00:03:37;;;;;;;33.65;18.33;;;;;;;;;;2059372;28;20035;-95
2023/05/22 00:05:02;;;;;;;30.65;17.33;;;;;;;;;;2049233;28;20142;-95
2023/05/22 00:06:23;;;;;;;34.40;18.83;;;;;;;;;;2059491;28;20030;-95
2023/05/22 00:07:45;;;;;;;34.58;18.02;;;;;;;;;;2059374;28;20172;-96
2023/05/22 00:09:11;;;;;;;29.00;17.52;;;;;;;;;;2052388;29;20546;-95
2023/05/22 00:10:37;;;;;;;31.17;18.10;;;;;;;;;;2055705;28;20042;-94
2023/05/22 00:11:58;;;;;;;33.53;18.95;;;;;;;;;;2057705;28;20042;-95
2023/05/22 00:13:19;;;;;;;40.25;20.42;;;;;;;;;;2055946;28;20562;-94
2023/05/22 00:14:40;;;;;;;30.70;16.95;;;;;;;;;;2058495;28;20050;-95
2023/05/22 00:16:06;;;;;;;34.88;19.50;;;;;;;;;;2061421;28;20474;-93
2023/05/22 00:17:29;;;;;;;36.63;18.42;;;;;;;;;;2051097;28;20365;-95
2023/05/22 00:18:53;;;;;;;28.67;17.95;;;;;;;;;;2056872;28;20038;-95
2023/05/22 00:20:14;;;;;;;31.00;18.95;;;;;;;;;;2048399;29;20036;-95
2023/05/22 00:21:36;;;;;;;32.22;19.00;;;;;;;;;;2051480;28;20030;-95
2023/05/22 00:23:00;;;;;;;40.13;18.45;;;;;;;;;;2057766;28;20105;-95
2023/05/22 00:24:24;;;;;;;34.33;18.35;;;;;;;;;;2049064;29;20079;-95
2023/05/22 00:25:49;;;;;;;39.47;20.25;;;;;;;;;;2052058;28;20031;-94
2023/05/22 00:27:10;;;;;;;34.95;18.17;;;;;;;;;;2055544;28;20031;-95
2023/05/22 00:28:34;;;;;;;36.83;20.35;;;;;;;;;;2054650;28;20038;-95
2023/05/22 00:29:58;;;;;;;32.05;19.17;;;;;;;;;;2053748;28;20027;-95
2023/05/22 00:31:19;;;;;;;36.72;19.38;;;;;;;;;;2057983;28;20026;-95
2023/05/22 00:32:40;;;;;;;44.42;22.77;;;;;;;;;;2051442;28;20043;-95
2023/05/22 00:34:01;;;;;;;27.83;16.80;;;;;;;;;;2056342;28;20126;-95
2023/05/22 00:35:22;;;;;;;33.55;17.77;;;;;;;;;;2058375;28;20026;-95
2023/05/22 00:36:48;;;;;;;31.15;18.55;;;;;;;;;;2058562;28;20033;-95
2023/05/22 00:38:25;;;;;;;31.83;18.48;;;;;;;;;;2049544;29;20551;-95
2023/05/22 00:39:49;;;;;;;36.45;18.90;;;;;;;;;;2051027;29;20047;-95
2023/05/22 00:41:09;;;;;;;32.97;17.73;;;;;;;;;;2051456;28;20530;-95
2023/05/22 00:42:30;;;;;;;31.25;19.30;;;;;;;;;;2055649;28;20034;-94
2023/05/22 00:43:51;;;;;;;30.52;18.95;;;;;;;;;;2051076;29;20051;-95
2023/05/22 00:45:13;;;;;;;38.25;20.40;;;;;;;;;;2049301;29;20031;-94
2023/05/22 00:46:35;;;;;;;36.30;19.10;;;;;;;;;;2050619;28;20043;-95
2023/05/22 00:47:58;;;;;;;37.03;19.70;;;;;;;;;;2059858;28;20492;-95
2023/05/22 00:49:23;;;;;;;32.88;17.88;;;;;;;;;;2050363;28;20039;-95
2023/05/22 00:50:46;;;;;;;31.90;17.67;;;;;;;;;;2059278;28;20027;-94
2023/05/22 00:52:11;;;;;;;29.48;16.63;;;;;;;;;;2057737;28;20027;-95
2023/05/22 00:53:32;;;;;;;35.10;20.10;;;;;;;;;;2035207;28;20055;-94
2023/05/22 00:54:53;;;;;;;34.08;18.15;;;;;;;;;;2042268;29;20044;-95
2023/05/22 00:56:15;;;;;;;34.22;18.23;;;;;;;;;;2047767;28;20035;-95
2023/05/22 00:57:42;;;;;;;29.95;18.80;;;;;;;;;;2060491;28;20542;-95
2023/05/22 00:59:03;;;;;;;31.70;16.92;;;;;;;;;;2050918;29;20027;-95
2023/05/22 01:00:24;;;;;;;33.20;19.10;;;;;;;;;;2051333;28;20018;-92
2023/05/22 05:27:41;;;;;;;55.63;27.45;;;;;;;;;;2160320;23;20380;-75
2023/05/22 15:16:52;;;;;;;46.13;19.80;;;;;;;;;;2064536;28;20408;-78
2023/05/22 15:18:13;;;;;;;42.00;18.60;;;;;;;;;;2039999;28;20528;-79
2023/05/22 15:20:14;;;;;;;42.28;19.77;;;;;;;;;;2056539;28;20039;-78
2023/05/22 16:38:35;;;;;;;55.47;21.13;;;;;;;;;;2461218;23;20029;-75
2023/05/22 16:44:06;;;;;;;26.35;10.25;;;;;;;;;;2061076;28;20097;-83
2023/05/22 16:45:29;;;;;;;21.85;10.18;;;;;;;;;;2061323;28;20046;-85
2023/05/22 21:03:55;;;;;;;27.42;13.82;;;;;;;;;;2251490;23;20046;-95
2023/05/22 21:05:17;;;;;;;21.25;10.73;;;;;;;;;;2070388;28;20042;-96
2023/05/22 21:06:43;;;;;;;20.47;11.13;;;;;;;;;;2059573;28;20033;-96
2023/05/22 21:12:52;;;;;;;;;;;;;;;;;;;;;
2023/05/22 21:14:47;;;;;;;;;;;;;;;;;;;;;
2023/05/22 21:16:28;;;;;;;;;;;;;;;;;;;;;
2023/05/22 21:18:01;;;;;;;20.35;11.10;;;;;;;;;;2039646;29;20244;-95
2023/05/22 21:19:33;;;;;;;26.25;13.38;;;;;;;;;;2046993;29;20035;-96
2023/05/22 23:24:52;;;;;;;21.98;13.25;;;;;;;;;;2051952;29;20062;-94
2023/05/22 23:26:16;;;;;;;19.88;13.15;;;;;;;;;;2038257;29;20047;-96
2023/05/22 23:27:38;;;;;;;26.80;13.55;;;;;;;;;;2035825;29;20039;-95
2023/05/22 23:29:01;;;;;;;23.75;14.20;;;;;;;;;;2035709;29;20025;-96
2023/05/22 23:30:25;;;;;;;26.88;13.60;;;;;;;;;;2045924;29;20020;-96
2023/05/22 23:32:00;;;;;;;22.80;13.43;;;;;;;;;;2044408;29;20051;-93
2023/05/22 23:33:21;;;;;;;25.13;13.10;;;;;;;;;;2045980;29;20092;-96
2023/05/22 23:35:00;;;;;;;24.67;12.93;;;;;;;;;;2044174;29;20027;-95
2023/05/22 23:36:29;;;;;;;17.13;11.52;;;;;;;;;;2055901;28;20031;-95
2023/05/22 23:37:51;;;;;;;21.42;11.25;;;;;;;;;;2044297;29;20032;-95
2023/05/22 23:39:12;;;;;;;18.83;11.75;;;;;;;;;;2047095;29;20027;-95
2023/05/22 23:40:36;;;;;;;21.73;10.88;;;;;;;;;;2051463;28;20042;-95
2023/05/22 23:42:02;;;;;;;22.73;12.43;;;;;;;;;;2053018;28;20027;-95
2023/05/22 23:43:36;;;;;;;;;;;;;;;;;;;;;
2023/05/22 23:45:15;;;;;;;23.05;11.82;;;;;;;;;;2045642;29;20127;-95
2023/05/22 23:46:38;;;;;;;17.15;12.75;;;;;;;;;;2047485;29;20031;-96
2023/05/22 23:47:59;;;;;;;18.27;11.70;;;;;;;;;;2044011;29;20019;-96
2023/05/22 23:49:21;;;;;;;16.17;10.38;;;;;;;;;;2044509;29;20039;-93
2023/05/22 23:50:45;;;;;;;20.80;10.82;;;;;;;;;;2042829;29;20046;-95
2023/05/22 23:52:08;;;;;;;22.27;12.30;;;;;;;;;;2042929;29;20032;-95
2023/05/22 23:53:44;;;;;;;25.80;12.60;;;;;;;;;;2041025;29;20377;-95
2023/05/22 23:55:21;;;;;;;19.63;11.60;;;;;;;;;;2039349;29;20044;-95
2023/05/22 23:56:45;;;;;;;18.73;11.50;;;;;;;;;;2040489;29;20096;-95
2023/05/22 23:58:07;;;;;;;21.20;11.75;;;;;;;;;;2038735;29;20032;-95
2023/05/22 23:59:30;;;;;;;17.20;10.35;;;;;;;;;;2037334;29;20043;-96
